TimeCST,TemperatureF,Dew PointF,Humidity,Sea Level PressureIn,VisibilityMPH,Wind Direction,Wind SpeedMPH,Gust SpeedMPH,PrecipitationIn,Events,Conditions,WindDirDegrees,DateUTC
12:56 AM,59.0,55.9,90,29.86,10.0,SSW,12.7,-,N/A,,Mostly Cloudy,200,2012-12-16 06:56:00
1:04 AM,59.0,55.4,88,29.88,10.0,SSW,11.5,-,N/A,,Mostly Cloudy,210,2012-12-16 07:04:00
1:35 AM,59.0,55.4,88,29.88,10.0,SSW,11.5,-,N/A,,Mostly Cloudy,210,2012-12-16 07:35:00
1:56 AM,59.0,55.9,90,29.86,10.0,South,10.4,-,N/A,,Overcast,190,2012-12-16 07:56:00
2:03 AM,59.0,55.4,88,29.88,10.0,South,11.5,-,N/A,Thunderstorm,Overcast,190,2012-12-16 08:03:00
2:13 AM,59.0,55.4,88,29.88,10.0,SSW,11.5,-,0.00,Rain,Light Rain,200,2012-12-16 08:13:00
2:27 AM,59.0,55.4,88,29.87,10.0,SSW,11.5,17.3,0.00,,Mostly Cloudy,200,2012-12-16 08:27:00
2:41 AM,59.0,55.4,88,29.87,10.0,South,11.5,-,0.00,Thunderstorm,Mostly Cloudy,190,2012-12-16 08:41:00
2:49 AM,57.2,55.4,94,29.87,10.0,SSW,9.2,-,0.00,Thunderstorm,Overcast,200,2012-12-16 08:49:00
2:56 AM,59.0,55.9,90,29.86,10.0,SSW,8.1,-,0.00,,Overcast,200,2012-12-16 08:56:00
3:56 AM,59.0,56.8,93,29.84,10.0,South,6.9,-,N/A,Thunderstorm,Overcast,190,2012-12-16 09:56:00
4:08 AM,59.0,57.2,94,29.86,10.0,South,6.9,-,N/A,,Overcast,190,2012-12-16 10:08:00
4:56 AM,59.0,56.8,93,29.85,10.0,South,8.1,-,N/A,,Overcast,190,2012-12-16 10:56:00
5:13 AM,59.0,57.2,94,29.86,10.0,Calm,Calm,-,N/A,Thunderstorm,Overcast,0,2012-12-16 11:13:00
5:28 AM,60.8,57.2,88,29.86,10.0,Calm,Calm,-,N/A,,Overcast,0,2012-12-16 11:28:00
5:39 AM,59.0,57.2,94,29.85,10.0,South,5.8,-,N/A,Thunderstorm,Overcast,180,2012-12-16 11:39:00
5:56 AM,59.0,57.9,96,29.84,10.0,Calm,Calm,-,N/A,,Overcast,0,2012-12-16 11:56:00
6:31 AM,59.0,57.2,94,29.86,10.0,SE,6.9,-,N/A,,Overcast,140,2012-12-16 12:31:00
6:56 AM,57.9,56.8,96,29.86,10.0,Calm,Calm,-,N/A,,Mostly Cloudy,0,2012-12-16 12:56:00
7:56 AM,59.9,57.9,93,29.86,10.0,Variable,3.5,-,N/A,,Scattered Clouds,0,2012-12-16 13:56:00
8:20 AM,60.8,57.2,88,29.87,10.0,SSE,6.9,-,N/A,,Mostly Cloudy,160,2012-12-16 14:20:00
8:56 AM,61.0,59.0,93,29.87,10.0,SW,3.5,-,N/A,,Mostly Cloudy,220,2012-12-16 14:56:00
9:49 AM,62.6,59.0,88,29.87,10.0,South,6.9,-,N/A,,Mostly Cloudy,190,2012-12-16 15:49:00
9:56 AM,61.9,59.0,90,29.83,10.0,South,9.2,-,N/A,,Scattered Clouds,180,2012-12-16 15:56:00
10:56 AM,61.9,59.0,90,29.79,10.0,SSE,8.1,-,N/A,,Partly Cloudy,160,2012-12-16 16:56:00
11:11 AM,62.6,59.0,88,29.84,10.0,WSW,5.8,-,N/A,,Mostly Cloudy,240,2012-12-16 17:11:00
11:56 AM,63.0,59.0,87,29.78,10.0,South,8.1,-,N/A,,Mostly Cloudy,190,2012-12-16 17:56:00
12:03 PM,62.6,57.2,82,29.83,10.0,SW,6.9,-,N/A,,Mostly Cloudy,220,2012-12-16 18:03:00
12:56 PM,63.0,57.9,84,29.78,10.0,SSW,8.1,-,N/A,,Mostly Cloudy,200,2012-12-16 18:56:00
1:56 PM,63.0,57.9,84,29.77,10.0,SSW,8.1,-,N/A,,Mostly Cloudy,200,2012-12-16 19:56:00
2:56 PM,61.9,57.9,87,29.79,10.0,Calm,Calm,-,N/A,,Mostly Cloudy,0,2012-12-16 20:56:00
3:47 PM,62.6,57.2,82,29.81,10.0,SSW,8.1,-,N/A,,Scattered Clouds,200,2012-12-16 21:47:00
3:56 PM,61.9,57.9,87,29.79,10.0,South,6.9,-,N/A,,Scattered Clouds,180,2012-12-16 21:56:00
4:56 PM,61.9,55.9,81,29.77,10.0,SSW,16.1,25.3,0.00,,Mostly Cloudy,200,2012-12-16 22:56:00
5:56 PM,59.9,55.9,87,29.74,10.0,SSW,16.1,28.8,0.00,,Partly Cloudy,200,2012-12-16 23:56:00
6:56 PM,59.0,54.0,83,29.78,10.0,SSW,10.4,-,N/A,,Clear,210,2012-12-17 00:56:00
7:56 PM,57.9,52.9,83,29.80,10.0,SW,5.8,-,N/A,,Clear,220,2012-12-17 01:56:00
8:56 PM,56.8,52.9,87,29.79,10.0,South,6.9,-,N/A,,Clear,190,2012-12-17 02:56:00
9:56 PM,54.9,52.0,90,29.79,10.0,Calm,Calm,-,N/A,,Clear,0,2012-12-17 03:56:00
10:56 PM,50.0,50.0,100,29.80,10.0,Calm,Calm,-,N/A,,Clear,0,2012-12-17 04:56:00